Price, North Dakota
Current Conditions -  °F | °C
As of 7:15 AM on Thursday 27 Nov 2014 (Local Time) from KHZE Reporting Station
Few Clouds Few Clouds  
Wind Chill: -8°   Ceiling: Unl
Heat Index:   Visibility: 10mi
Dew Point:   Wind: 6mph
Humidity: 85%   Direction: 160°SSE
Pressure: 30.3"   Gusts: NA
Location:  47.1146°N, 101.343°W
Report Text: KHZE 271315Z AUTO 16005KT 10SM FEW120 M16/M18 A3030 RMK AO2
Loading
Personal Weather Stations






























Interactive Weather Map New forecast layout! Learn more

10-Day Weather Forecast

Advertisements
Track Severe Weather on mobile